Terminal Aerodrome Forecast
Issued by NWS

Home | Current Version | Previous Version | Text Only | Print | Product List | Glossary On
Versions: 1 2 3 4 5 6 7 8 9 10 11 12 13 14 15 16 17 18 19
000
FTUS42 KTAE 252020 AAD
TAFDHN
TAF AMD
KDHN 252020Z 2520/2618 VRB08G15KT 5SM BR VCTS SCT015 BKN035CB
      TEMPO 2520/2522 VRB25KT 1SM +TSRA OVC030CB
     FM252200 VRB04KT P6SM SCT030 BKN050
     FM260900 12006KT 5SM BR BKN020
     FM261500 16008KT P6SM VCTS BKN030CB=

USA.gov is the U.S. government's official web portal to all federal, state and local government web resources and services.